Companion Ship — WDF3026 — position and weather

sailwx.info

Track history (hours):
 
Tides and Currents Weather Stations Pressure Air Temp Water Temp Dewpoint Dewpoint Depression Visibility Wind Speed Wind Dir Waves Ship Positions

Companion Ship

Owner: brunkow, robert w, friday harbor, WA. More information available from US FCC via Universal Licensing System and Coast Guard Vessel Documentation Center.

Last reported at 2017-May-07 20:29 UTC. Time now 2017-Jun-25 13:50 UTC.
Position N 52°08' W 128°08'.
Warning: this ship's position is 48 days out of date.

Length 20 m; draft 2 m.

Type: Pleasure craft. MMSI: 367434940.

Date/timePositionNaut miles runAvg speedWind from/ knotsBaromVisibWave heightAir tempDewpointWater temp
2017-May-07 20:29N 52°08' W 128°08'15 7.6
2017-May-07 18:29N 51°54' W 127°58'511.3
2017-May-07 18:00N 51°48' W 127°59'510.9
2017-May-07 17:31N 51°43' W 128°03'5 9.2
2017-May-07 17:00N 51°39' W 128°06'1 2.0
2017-May-07 16:30N 51°39' W 128°08'0 0.0
2017-May-07 16:00N 51°39' W 128°08'0 0.0
2017-May-07 15:31N 51°39' W 128°08'0 0.0
2017-May-07 15:00N 51°39' W 128°08'0 0.0
2017-May-07 14:31N 51°39' W 128°08'0 0.0
2017-May-07 13:31N 51°39' W 128°08'0 0.0
2017-May-07 13:00N 51°39' W 128°08'0 0.0
2017-May-07 12:31N 51°39' W 128°08'0 0.0
2017-May-07 12:00N 51°39' W 128°08'0 0.0
2017-May-07 11:30N 51°39' W 128°08'0 0.0
2017-May-07 11:00N 51°39' W 128°08'0 0.0
2017-May-07 10:28N 51°39' W 128°08'0 0.0
2017-May-07 10:01N 51°39' W 128°08'0 0.0
2017-May-07 09:30N 51°39' W 128°08'0 0.0
2017-May-07 09:00N 51°39' W 128°08'0 0.0
2017-May-07 08:31N 51°39' W 128°08'0 0.0
2017-May-07 08:00N 51°39' W 128°08'0 0.0
2017-May-07 07:31N 51°39' W 128°08'0 0.0
2017-May-07 07:00N 51°39' W 128°08'0 0.0
2017-May-07 06:30N 51°39' W 128°08'0 0.0
2017-May-07 06:00N 51°39' W 128°08'0 0.0
2017-May-07 05:30N 51°39' W 128°08'0 0.0
2017-May-07 05:00N 51°39' W 128°08'0 0.0
2017-May-07 04:30N 51°39' W 128°08'0 0.0
2017-May-07 04:00N 51°39' W 128°08'0 0.1
2017-May-07 03:31N 51°39' W 128°08'0 0.0
2017-May-07 03:00N 51°39' W 128°08'0 0.0
2017-May-07 02:30N 51°39' W 128°08'0 0.0
2017-May-07 02:00N 51°39' W 128°08'0 0.0
2017-May-07 01:31N 51°39' W 128°08'0 0.0
2017-May-07 01:00N 51°39' W 128°08'0 0.0
2017-May-07 00:31N 51°39' W 128°08'0 0.0
2017-May-07 00:00N 51°39' W 128°08'0 0.0
2017-May-06 23:30N 51°39' W 128°08'0 0.0
2017-May-06 23:00N 51°39' W 128°08'0 0.0
2017-May-06 22:30N 51°39' W 128°08'0 0.1
2017-May-06 22:00N 51°39' W 128°08'0 0.0
2017-May-06 21:30N 51°39' W 128°08'1 2.0
2017-May-06 21:01N 51°39' W 128°06'510.8
2017-May-06 20:30N 51°39' W 127°57'3211.2
2017-May-06 17:39N 51°07' W 127°50'211.5
2017-May-06 17:30N 51°06' W 127°48'510.2
2017-May-06 17:00N 51°01' W 127°44'510.5
2017-May-06 16:30N 50°58' W 127°37'510.4
2017-May-06 16:00N 50°55' W 127°31'5 9.4
2017-May-06 15:30N 50°50' W 127°28'84 3.5
2017-May-05 15:30N 50°19' W 125°26'611.5
2017-May-05 15:00N 50°14' W 125°23'1212.2
2017-May-05 14:00N 50°03' W 125°15'1 0.4
2017-May-05 12:01N 50°02' W 125°15'0 0.0
2017-May-05 11:58N 50°02' W 125°15'0 0.0
2017-May-05 10:43N 50°02' W 125°15'0 0.0
2017-May-05 10:25N 50°02' W 125°15'0 0.0
2017-May-05 09:26N 50°02' W 125°15'0 0.0
2017-May-04 21:08N 50°02' W 125°15'0 0.1
2017-May-04 20:45N 50°02' W 125°15'1 2.2
2017-May-04 20:30N 50°02' W 125°14'6 9.7
2017-May-04 19:55N 49°57' W 125°08'511.2
2017-May-04 19:30N 49°54' W 125°03'611.0
2017-May-04 18:59N 49°50' W 124°57'511.0
2017-May-04 18:30N 49°46' W 124°51'910.9
2017-May-04 17:43N 49°40' W 124°41'68 3.4
2017-May-03 21:21N 48°53' W 123°27'4 9.7
2017-May-03 20:59N 48°49' W 123°24'4 9.0
2017-May-03 20:30N 48°45' W 123°23'4 8.7
2017-May-03 20:00N 48°41' W 123°23'2 4.4
2017-May-03 19:30N 48°39' W 123°21'610.5
2017-May-03 18:55N 48°38' W 123°12'2 2.8
2017-May-03 18:09N 48°37' W 123°09'0 0.0
2017-May-03 17:17N 48°37' W 123°09'0 0.2
2017-May-03 17:00N 48°37' W 123°09'0 0.0
2017-May-03 16:29N 48°37' W 123°09'0 0.0
2017-May-03 15:54N 48°37' W 123°09'0 0.0
2017-May-03 14:32N 48°37' W 123°09'0 0.0
2017-May-03 14:29N 48°37' W 123°09'0 0.0
2017-May-03 13:30N 48°37' W 123°09'0 0.0
2017-May-03 12:23N 48°37' W 123°09'0 0.0
2017-May-03 11:50N 48°37' W 123°09'0 0.0
2017-May-03 09:53N 48°37' W 123°09'0 0.0
2017-May-03 09:28N 48°37' W 123°09'0 0.0
2017-May-03 09:00N 48°37' W 123°09'0 0.0
2017-May-03 08:20N 48°37' W 123°09'0 0.0
2017-May-03 07:58N 48°37' W 123°09'0 0.0
2017-May-03 06:51N 48°37' W 123°09'0 0.0
2017-May-03 06:18N 48°37' W 123°09'0 0.0
2017-May-03 05:59N 48°37' W 123°09'0 0.0
2017-May-03 05:25N 48°37' W 123°09'0 0.0
2017-May-03 05:00N 48°37' W 123°09'0 0.0
2017-May-03 04:26N 48°37' W 123°09'0 0.0
2017-May-03 03:53N 48°37' W 123°09'0 0.0
2017-May-03 03:29N 48°37' W 123°09'0 0.0
2017-May-03 02:53N 48°37' W 123°09'0 0.0
2017-May-02 20:26N 48°37' W 123°09'0 0.0
2017-May-02 19:45N 48°37' W 123°09'0 0.0
2017-May-02 19:28N 48°37' W 123°09'0 0.0
2017-May-02 18:59N 48°37' W 123°09'0 0.0
2017-May-02 18:29N 48°37' W 123°09'0 0.0
2017-May-02 17:52N 48°37' W 123°09'0 0.0
2017-May-02 17:26N 48°37' W 123°09'0 0.0
2017-May-02 16:53N 48°37' W 123°09'0 0.0
2017-May-02 16:20N 48°37' W 123°09'0 0.0
2017-May-02 16:00N 48°37' W 123°09'0 0.0
2017-May-02 15:29N 48°37' W 123°09'0 0.0
2017-May-02 14:58N 48°37' W 123°09'0 0.0
2017-May-02 14:30N 48°37' W 123°09'0 0.0
2017-May-02 13:31N 48°37' W 123°09'0 0.0
2017-May-02 13:00N 48°37' W 123°09'0 0.0
2017-May-02 12:29N 48°37' W 123°09'0 0.0
2017-May-02 12:00N 48°37' W 123°09'0 0.0
2017-May-02 11:29N 48°37' W 123°09'0 0.0
2017-May-02 10:59N 48°37' W 123°09'0 0.0
2017-May-02 10:30N 48°37' W 123°09'0 0.0
2017-May-02 09:59N 48°37' W 123°09'0 0.0
2017-May-02 09:30N 48°37' W 123°09'0 0.0
2017-May-02 09:00N 48°37' W 123°09'0 0.0
2017-May-02 08:27N 48°37' W 123°09'0 0.0
2017-May-02 08:00N 48°37' W 123°09'0 0.0
2017-May-02 07:30N 48°37' W 123°09'0 0.0
2017-May-02 07:00N 48°37' W 123°09'0 0.0
2017-May-02 06:30N 48°37' W 123°09'0 0.0
2017-May-02 05:56N 48°37' W 123°09'0 0.0
2017-May-02 05:30N 48°37' W 123°09'0 0.0
2017-May-02 05:00N 48°37' W 123°09'0 0.0
2017-May-02 04:23N 48°37' W 123°09'0 0.0
2017-May-02 04:00N 48°37' W 123°09'0 0.0
2017-May-02 03:30N 48°37' W 123°09'0 0.0
2017-May-02 03:00N 48°37' W 123°09'0 0.0
2017-May-02 02:30N 48°37' W 123°09'0 0.0
2017-May-02 02:00N 48°37' W 123°09'0 0.0
2017-May-02 01:29N 48°37' W 123°09'0 0.0
2017-May-02 01:00N 48°37' W 123°09'0 0.0
2017-May-02 00:30N 48°37' W 123°09'0 0.0
2017-May-01 23:54N 48°37' W 123°09'0 0.0
2017-May-01 23:30N 48°37' W 123°09'0 0.0
2017-May-01 22:59N 48°37' W 123°09'0 0.0
2017-May-01 22:23N 48°37' W 123°09'0 0.0
2017-May-01 21:59N 48°37' W 123°09'0 0.0
2017-May-01 21:30N 48°37' W 123°09'0 0.0
2017-May-01 20:17N 48°37' W 123°09'0 0.0
2017-May-01 19:57N 48°37' W 123°09'0 0.0
2017-May-01 19:27N 48°37' W 123°09'0 0.0
2017-May-01 19:00N 48°37' W 123°09'0 0.0
2017-May-01 18:29N 48°37' W 123°09'0 0.0
2017-May-01 17:59N 48°37' W 123°09'0 0.0
2017-May-01 17:25N 48°37' W 123°09'0 0.0
2017-May-01 16:56N 48°37' W 123°09'0 0.0
2017-May-01 16:08N 48°37' W 123°09'0 0.0
2017-May-01 15:58N 48°37' W 123°09'0 0.0
2017-May-01 15:24N 48°37' W 123°09'0 0.0
2017-May-01 14:58N 48°37' W 123°09'0 0.0
2017-May-01 14:00N 48°37' W 123°09'0 0.0
2017-May-01 13:30N 48°37' W 123°09'0 0.0
2017-May-01 13:00N 48°37' W 123°09'0 0.0
2017-May-01 12:29N 48°37' W 123°09'0 0.0
2017-May-01 12:00N 48°37' W 123°09'0 0.0
2017-May-01 11:30N 48°37' W 123°09'0 0.0
2017-May-01 11:00N 48°37' W 123°09'0 0.0
2017-May-01 10:30N 48°37' W 123°09'0 0.0
2017-May-01 10:00N 48°37' W 123°09'0 0.0
2017-May-01 09:30N 48°37' W 123°09'0 0.0
2017-May-01 09:00N 48°37' W 123°09'0 0.0
2017-May-01 08:30N 48°37' W 123°09'0 0.0
2017-May-01 07:59N 48°37' W 123°09'0 0.0
2017-May-01 07:30N 48°37' W 123°09'0 0.0
2017-May-01 07:00N 48°37' W 123°09'0 0.0
2017-May-01 06:30N 48°37' W 123°09'0 0.0
2017-May-01 05:59N 48°37' W 123°09'0 0.0
2017-May-01 05:30N 48°37' W 123°09'0 0.0
2017-May-01 04:44N 48°37' W 123°09'0 0.0
2017-May-01 04:29N 48°37' W 123°09'0 0.0
2017-May-01 03:51N 48°37' W 123°09'0 0.0
2017-May-01 03:24N 48°37' W 123°09'0 0.0
2017-May-01 03:00N 48°37' W 123°09'0 0.0
2017-May-01 02:29N 48°37' W 123°09'0 0.0
2017-May-01 01:58N 48°37' W 123°09'0 0.0
2017-May-01 01:30N 48°37' W 123°09'0 0.0
2017-May-01 00:58N 48°37' W 123°09'1 2.6
2017-May-01 00:30N 48°38' W 123°10'1 0.6
2017-Apr-30 22:20N 48°39' W 123°11'2 7.4
2017-Apr-30 22:00N 48°37' W 123°09'0 0.0
2017-Apr-30 21:24N 48°37' W 123°09'0 0.0
2017-Apr-30 20:58N 48°37' W 123°09'0 0.0
2017-Apr-30 20:26N 48°37' W 123°09'0 0.0
2017-Apr-30 19:37N 48°37' W 123°09'0 0.0
2017-Apr-30 18:29N 48°37' W 123°09'0 0.0
2017-Apr-30 17:59N 48°37' W 123°09'0 0.0
2017-Apr-30 16:21N 48°37' W 123°09'0 0.0
2017-Apr-30 15:57N 48°37' W 123°09'0 0.0
2017-Apr-30 15:23N 48°37' W 123°09'0 0.0
2017-Apr-30 14:55N 48°37' W 123°09'0 0.0
2017-Apr-30 14:00N 48°37' W 123°09'0 0.0
2017-Apr-30 13:29N 48°37' W 123°09'0 0.0
2017-Apr-30 12:59N 48°37' W 123°09'0 0.0
2017-Apr-30 12:27N 48°37' W 123°09'0 0.0
2017-Apr-30 12:00N 48°37' W 123°09'0 0.0
2017-Apr-30 11:30N 48°37' W 123°09'0 0.0
2017-Apr-30 11:00N 48°37' W 123°09'0 0.0
2017-Apr-30 10:30N 48°37' W 123°09'0 0.0
2017-Apr-30 10:00N 48°37' W 123°09'0 0.0
2017-Apr-30 08:42N 48°37' W 123°09'0 0.0
2017-Apr-30 08:29N 48°37' W 123°09'0 0.0
2017-Apr-30 07:21N 48°37' W 123°09'0 0.0
2017-Apr-30 06:54N 48°37' W 123°09'0 0.0
2017-Apr-30 06:30N 48°37' W 123°09'0 0.0
2017-Apr-30 06:00N 48°37' W 123°09'0 0.0
2017-Apr-30 05:26N 48°37' W 123°09'0 0.0
2017-Apr-30 04:59N 48°37' W 123°09'0 0.0
2017-Apr-30 04:29N 48°37' W 123°09'0 0.0
2017-Apr-30 03:57N 48°37' W 123°09'0 0.0
2017-Apr-30 03:27N 48°37' W 123°09'0 0.0
2017-Apr-30 02:49N 48°37' W 123°09'0 0.0
2017-Apr-30 02:30N 48°37' W 123°09'0 0.0
2017-Apr-30 01:45N 48°37' W 123°09'0 0.0
2017-Apr-30 00:41N 48°37' W 123°09'0 0.0
2017-Apr-30 00:27N 48°37' W 123°09'0 0.0
2017-Apr-29 22:12N 48°37' W 123°09'0 0.0
2017-Apr-29 20:24N 48°37' W 123°09'0 0.0
2017-Apr-29 19:53N 48°37' W 123°09'0 0.0
2017-Apr-29 19:26N 48°37' W 123°09'0 0.0
2017-Apr-29 18:59N 48°37' W 123°09'0 0.0
2017-Apr-29 18:27N 48°37' W 123°09'0 0.0
2017-Apr-29 17:55N 48°37' W 123°09'0 0.0
2017-Apr-29 17:29N 48°37' W 123°09'0 0.0
2017-Apr-29 16:46N 48°37' W 123°09'0 0.0
2017-Apr-29 16:27N 48°37' W 123°09'0 0.0
2017-Apr-29 15:59N 48°37' W 123°09'0 0.0
2017-Apr-29 15:27N 48°37' W 123°09'0 0.0
2017-Apr-29 14:58N 48°37' W 123°09'0 0.0
2017-Apr-29 14:00N 48°37' W 123°09'0 0.0
2017-Apr-29 13:30N 48°37' W 123°09'0 0.0
2017-Apr-29 12:52N 48°37' W 123°09'0 0.0
2017-Apr-29 12:30N 48°37' W 123°09'0 0.0
2017-Apr-29 11:52N 48°37' W 123°09'0 0.0
2017-Apr-29 11:30N 48°37' W 123°09'0 0.0
2017-Apr-29 11:00N 48°37' W 123°09'0 0.0
2017-Apr-29 10:30N 48°37' W 123°09'0 0.0
2017-Apr-29 10:00N 48°37' W 123°09'0 0.0
2017-Apr-29 09:25N 48°37' W 123°09'0 0.0
2017-Apr-29 08:38N 48°37' W 123°09'0 0.0
2017-Apr-29 08:30N 48°37' W 123°09'0 0.0
2017-Apr-29 08:00N 48°37' W 123°09'0 0.0
2017-Apr-29 07:30N 48°37' W 123°09'0 0.0
2017-Apr-29 07:00N 48°37' W 123°09'0 0.0
2017-Apr-29 06:19N 48°37' W 123°09'0 0.0
2017-Apr-29 05:58N 48°37' W 123°09'0 0.0
2017-Apr-29 05:30N 48°37' W 123°09'0 0.0
2017-Apr-29 05:00N 48°37' W 123°09'0 0.0
2017-Apr-29 04:30N 48°37' W 123°09'0 0.0
2017-Apr-29 04:00N 48°37' W 123°09'0 0.0
2017-Apr-29 03:30N 48°37' W 123°09'0 0.0
2017-Apr-29 02:59N 48°37' W 123°09'0 0.0
2017-Apr-29 02:30N 48°37' W 123°09'0 0.0
2017-Apr-29 02:00N 48°37' W 123°09'0 0.0
2017-Apr-29 01:28N 48°37' W 123°09'0 0.0
2017-Apr-29 00:58N 48°37' W 123°09'0 0.0
2017-Apr-29 00:27N 48°37' W 123°09'0 0.0
2017-Apr-29 00:00N 48°37' W 123°09'0 0.0
2017-Apr-28 23:27N 48°37' W 123°09'0 0.0
2017-Apr-28 22:45N 48°37' W 123°09'0 0.0
2017-Apr-28 22:28N 48°37' W 123°09'0 0.0
2017-Apr-28 21:58N 48°37' W 123°09'0 0.0
2017-Apr-28 21:30N 48°37' W 123°09'0 0.0
2017-Apr-28 20:59N 48°37' W 123°09'0 0.0
2017-Apr-28 20:28N 48°37' W 123°09'0 0.0
2017-Apr-28 19:58N 48°37' W 123°09'0 0.0
2017-Apr-28 19:30N 48°37' W 123°09'0 0.0
2017-Apr-28 18:51N 48°37' W 123°09'0 0.0
2017-Apr-28 18:23N 48°37' W 123°09'0 0.0
2017-Apr-28 17:59N 48°37' W 123°09'0 0.0
2017-Apr-28 17:24N 48°37' W 123°09'0 0.0
2017-Apr-28 17:00N 48°37' W 123°09'0 0.0
2017-Apr-28 16:28N 48°37' W 123°09'0 0.0
2017-Apr-28 16:00N 48°37' W 123°09'0 0.0
2017-Apr-28 15:26N 48°37' W 123°09'0 0.0
2017-Apr-28 15:00N 48°37' W 123°09'0 0.0
2017-Apr-28 14:00N 48°37' W 123°09'0 0.0
2017-Apr-28 13:30N 48°37' W 123°09'0 0.0
2017-Apr-28 13:00N 48°37' W 123°09'0 0.0
2017-Apr-28 12:30N 48°37' W 123°09'0 0.0
2017-Apr-28 11:59N 48°37' W 123°09'0 0.0
2017-Apr-28 11:00N 48°37' W 123°09'0 0.0
2017-Apr-28 10:30N 48°37' W 123°09'0 0.0
2017-Apr-28 10:00N 48°37' W 123°09'0 0.0
2017-Apr-28 09:30N 48°37' W 123°09'0 0.0
2017-Apr-28 07:44N 48°37' W 123°09'0 0.0
2017-Apr-28 07:30N 48°37' W 123°09'0 0.0
2017-Apr-28 06:53N 48°37' W 123°09'0 0.0
2017-Apr-28 06:20N 48°37' W 123°09'0 0.0
2017-Apr-28 05:59N 48°37' W 123°09'0 0.0
2017-Apr-28 05:30N 48°37' W 123°09'0 0.0
2017-Apr-28 04:39N 48°37' W 123°09'0 0.0
2017-Apr-28 04:30N 48°37' W 123°09'0 0.0
2017-Apr-28 03:55N 48°37' W 123°09'0 0.0
2017-Apr-28 03:30N 48°37' W 123°09'0 0.0
2017-Apr-28 03:00N 48°37' W 123°09'0 0.0
2017-Apr-28 01:48N 48°37' W 123°09'0 0.0
2017-Apr-28 01:29N 48°37' W 123°09'0 0.0
2017-Apr-28 00:59N 48°37' W 123°09'0 0.0
2017-Apr-28 00:29N 48°37' W 123°09'0 0.0
2017-Apr-28 00:00N 48°37' W 123°09'0 0.0
2017-Apr-27 23:30N 48°37' W 123°09'0 0.0
2017-Apr-27 22:55N 48°37' W 123°09'0 0.0
2017-Apr-27 22:29N 48°37' W 123°09'0 0.0
2017-Apr-27 22:00N 48°37' W 123°09'  
Track history (hours):
 
Tides and Currents Weather Stations Pressure Air Temp Water Temp Dewpoint Dewpoint Depression Visibility Wind Speed Wind Dir Waves Ship Positions

Companion Ship

Owner: brunkow, robert w, friday harbor, WA. More information available from US FCC via Universal Licensing System and Coast Guard Vessel Documentation Center.

Last reported at 2017-May-07 20:29 UTC. Time now 2017-Jun-25 13:50 UTC.
Position N 52°08' W 128°08'.
Warning: this ship's position is 48 days out of date.

Length 20 m; draft 2 m.

Type: Pleasure craft. MMSI: 367434940.

Date/timePositionNaut miles runAvg speedWind from/ knotsBaromVisibWave heightAir tempDewpointWater temp
2017-May-07 20:29N 52°08' W 128°08'15 7.6
2017-May-07 18:29N 51°54' W 127°58'511.3
2017-May-07 18:00N 51°48' W 127°59'510.9
2017-May-07 17:31N 51°43' W 128°03'5 9.2
2017-May-07 17:00N 51°39' W 128°06'1 2.0
2017-May-07 16:30N 51°39' W 128°08'0 0.0
2017-May-07 16:00N 51°39' W 128°08'0 0.0
2017-May-07 15:31N 51°39' W 128°08'0 0.0
2017-May-07 15:00N 51°39' W 128°08'0 0.0
2017-May-07 14:31N 51°39' W 128°08'0 0.0
2017-May-07 13:31N 51°39' W 128°08'0 0.0
2017-May-07 13:00N 51°39' W 128°08'0 0.0
2017-May-07 12:31N 51°39' W 128°08'0 0.0
2017-May-07 12:00N 51°39' W 128°08'0 0.0
2017-May-07 11:30N 51°39' W 128°08'0 0.0
2017-May-07 11:00N 51°39' W 128°08'0 0.0
2017-May-07 10:28N 51°39' W 128°08'0 0.0
2017-May-07 10:01N 51°39' W 128°08'0 0.0
2017-May-07 09:30N 51°39' W 128°08'0 0.0
2017-May-07 09:00N 51°39' W 128°08'0 0.0
2017-May-07 08:31N 51°39' W 128°08'0 0.0
2017-May-07 08:00N 51°39' W 128°08'0 0.0
2017-May-07 07:31N 51°39' W 128°08'0 0.0
2017-May-07 07:00N 51°39' W 128°08'0 0.0
2017-May-07 06:30N 51°39' W 128°08'0 0.0
2017-May-07 06:00N 51°39' W 128°08'0 0.0
2017-May-07 05:30N 51°39' W 128°08'0 0.0
2017-May-07 05:00N 51°39' W 128°08'0 0.0
2017-May-07 04:30N 51°39' W 128°08'0 0.0
2017-May-07 04:00N 51°39' W 128°08'0 0.1
2017-May-07 03:31N 51°39' W 128°08'0 0.0
2017-May-07 03:00N 51°39' W 128°08'0 0.0
2017-May-07 02:30N 51°39' W 128°08'0 0.0
2017-May-07 02:00N 51°39' W 128°08'0 0.0
2017-May-07 01:31N 51°39' W 128°08'0 0.0
2017-May-07 01:00N 51°39' W 128°08'0 0.0
2017-May-07 00:31N 51°39' W 128°08'0 0.0
2017-May-07 00:00N 51°39' W 128°08'0 0.0
2017-May-06 23:30N 51°39' W 128°08'0 0.0
2017-May-06 23:00N 51°39' W 128°08'0 0.0
2017-May-06 22:30N 51°39' W 128°08'0 0.1
2017-May-06 22:00N 51°39' W 128°08'0 0.0
2017-May-06 21:30N 51°39' W 128°08'1 2.0
2017-May-06 21:01N 51°39' W 128°06'510.8
2017-May-06 20:30N 51°39' W 127°57'3211.2
2017-May-06 17:39N 51°07' W 127°50'211.5
2017-May-06 17:30N 51°06' W 127°48'510.2
2017-May-06 17:00N 51°01' W 127°44'510.5
2017-May-06 16:30N 50°58' W 127°37'510.4
2017-May-06 16:00N 50°55' W 127°31'5 9.4
2017-May-06 15:30N 50°50' W 127°28'84 3.5
2017-May-05 15:30N 50°19' W 125°26'611.5
2017-May-05 15:00N 50°14' W 125°23'1212.2
2017-May-05 14:00N 50°03' W 125°15'1 0.4
2017-May-05 12:01N 50°02' W 125°15'0 0.0
2017-May-05 11:58N 50°02' W 125°15'0 0.0
2017-May-05 10:43N 50°02' W 125°15'0 0.0
2017-May-05 10:25N 50°02' W 125°15'0 0.0
2017-May-05 09:26N 50°02' W 125°15'0 0.0
2017-May-04 21:08N 50°02' W 125°15'0 0.1
2017-May-04 20:45N 50°02' W 125°15'1 2.2
2017-May-04 20:30N 50°02' W 125°14'6 9.7
2017-May-04 19:55N 49°57' W 125°08'511.2
2017-May-04 19:30N 49°54' W 125°03'611.0
2017-May-04 18:59N 49°50' W 124°57'511.0
2017-May-04 18:30N 49°46' W 124°51'910.9
2017-May-04 17:43N 49°40' W 124°41'68 3.4
2017-May-03 21:21N 48°53' W 123°27'4 9.7
2017-May-03 20:59N 48°49' W 123°24'4 9.0
2017-May-03 20:30N 48°45' W 123°23'4 8.7
2017-May-03 20:00N 48°41' W 123°23'2 4.4
2017-May-03 19:30N 48°39' W 123°21'610.5
2017-May-03 18:55N 48°38' W 123°12'2 2.8
2017-May-03 18:09N 48°37' W 123°09'0 0.0
2017-May-03 17:17N 48°37' W 123°09'0 0.2
2017-May-03 17:00N 48°37' W 123°09'0 0.0
2017-May-03 16:29N 48°37' W 123°09'0 0.0
2017-May-03 15:54N 48°37' W 123°09'0 0.0
2017-May-03 14:32N 48°37' W 123°09'0 0.0
2017-May-03 14:29N 48°37' W 123°09'0 0.0
2017-May-03 13:30N 48°37' W 123°09'0 0.0
2017-May-03 12:23N 48°37' W 123°09'0 0.0
2017-May-03 11:50N 48°37' W 123°09'0 0.0
2017-May-03 09:53N 48°37' W 123°09'0 0.0
2017-May-03 09:28N 48°37' W 123°09'0 0.0
2017-May-03 09:00N 48°37' W 123°09'0 0.0
2017-May-03 08:20N 48°37' W 123°09'0 0.0
2017-May-03 07:58N 48°37' W 123°09'0 0.0
2017-May-03 06:51N 48°37' W 123°09'0 0.0
2017-May-03 06:18N 48°37' W 123°09'0 0.0
2017-May-03 05:59N 48°37' W 123°09'0 0.0
2017-May-03 05:25N 48°37' W 123°09'0 0.0
2017-May-03 05:00N 48°37' W 123°09'0 0.0
2017-May-03 04:26N 48°37' W 123°09'0 0.0
2017-May-03 03:53N 48°37' W 123°09'0 0.0
2017-May-03 03:29N 48°37' W 123°09'0 0.0
2017-May-03 02:53N 48°37' W 123°09'0 0.0
2017-May-02 20:26N 48°37' W 123°09'0 0.0
2017-May-02 19:45N 48°37' W 123°09'0 0.0
2017-May-02 19:28N 48°37' W 123°09'0 0.0
2017-May-02 18:59N 48°37' W 123°09'0 0.0
2017-May-02 18:29N 48°37' W 123°09'0 0.0
2017-May-02 17:52N 48°37' W 123°09'0 0.0
2017-May-02 17:26N 48°37' W 123°09'0 0.0
2017-May-02 16:53N 48°37' W 123°09'0 0.0
2017-May-02 16:20N 48°37' W 123°09'0 0.0
2017-May-02 16:00N 48°37' W 123°09'0 0.0
2017-May-02 15:29N 48°37' W 123°09'0 0.0
2017-May-02 14:58N 48°37' W 123°09'0 0.0
2017-May-02 14:30N 48°37' W 123°09'0 0.0
2017-May-02 13:31N 48°37' W 123°09'0 0.0
2017-May-02 13:00N 48°37' W 123°09'0 0.0
2017-May-02 12:29N 48°37' W 123°09'0 0.0
2017-May-02 12:00N 48°37' W 123°09'0 0.0
2017-May-02 11:29N 48°37' W 123°09'0 0.0
2017-May-02 10:59N 48°37' W 123°09'0 0.0
2017-May-02 10:30N 48°37' W 123°09'0 0.0
2017-May-02 09:59N 48°37' W 123°09'0 0.0
2017-May-02 09:30N 48°37' W 123°09'0 0.0
2017-May-02 09:00N 48°37' W 123°09'0 0.0
2017-May-02 08:27N 48°37' W 123°09'0 0.0
2017-May-02 08:00N 48°37' W 123°09'0 0.0
2017-May-02 07:30N 48°37' W 123°09'0 0.0
2017-May-02 07:00N 48°37' W 123°09'0 0.0
2017-May-02 06:30N 48°37' W 123°09'0 0.0
2017-May-02 05:56N 48°37' W 123°09'0 0.0
2017-May-02 05:30N 48°37' W 123°09'0 0.0
2017-May-02 05:00N 48°37' W 123°09'0 0.0
2017-May-02 04:23N 48°37' W 123°09'0 0.0
2017-May-02 04:00N 48°37' W 123°09'0 0.0
2017-May-02 03:30N 48°37' W 123°09'0 0.0
2017-May-02 03:00N 48°37' W 123°09'0 0.0
2017-May-02 02:30N 48°37' W 123°09'0 0.0
2017-May-02 02:00N 48°37' W 123°09'0 0.0
2017-May-02 01:29N 48°37' W 123°09'0 0.0
2017-May-02 01:00N 48°37' W 123°09'0 0.0
2017-May-02 00:30N 48°37' W 123°09'0 0.0
2017-May-01 23:54N 48°37' W 123°09'0 0.0
2017-May-01 23:30N 48°37' W 123°09'0 0.0
2017-May-01 22:59N 48°37' W 123°09'0 0.0
2017-May-01 22:23N 48°37' W 123°09'0 0.0
2017-May-01 21:59N 48°37' W 123°09'0 0.0
2017-May-01 21:30N 48°37' W 123°09'0 0.0
2017-May-01 20:17N 48°37' W 123°09'0 0.0
2017-May-01 19:57N 48°37' W 123°09'0 0.0
2017-May-01 19:27N 48°37' W 123°09'0 0.0
2017-May-01 19:00N 48°37' W 123°09'0 0.0
2017-May-01 18:29N 48°37' W 123°09'0 0.0
2017-May-01 17:59N 48°37' W 123°09'0 0.0
2017-May-01 17:25N 48°37' W 123°09'0 0.0
2017-May-01 16:56N 48°37' W 123°09'0 0.0
2017-May-01 16:08N 48°37' W 123°09'0 0.0
2017-May-01 15:58N 48°37' W 123°09'0 0.0
2017-May-01 15:24N 48°37' W 123°09'0 0.0
2017-May-01 14:58N 48°37' W 123°09'0 0.0
2017-May-01 14:00N 48°37' W 123°09'0 0.0
2017-May-01 13:30N 48°37' W 123°09'0 0.0
2017-May-01 13:00N 48°37' W 123°09'0 0.0
2017-May-01 12:29N 48°37' W 123°09'0 0.0
2017-May-01 12:00N 48°37' W 123°09'0 0.0
2017-May-01 11:30N 48°37' W 123°09'0 0.0
2017-May-01 11:00N 48°37' W 123°09'0 0.0
2017-May-01 10:30N 48°37' W 123°09'0 0.0
2017-May-01 10:00N 48°37' W 123°09'0 0.0
2017-May-01 09:30N 48°37' W 123°09'0 0.0
2017-May-01 09:00N 48°37' W 123°09'0 0.0
2017-May-01 08:30N 48°37' W 123°09'0 0.0
2017-May-01 07:59N 48°37' W 123°09'0 0.0
2017-May-01 07:30N 48°37' W 123°09'0 0.0
2017-May-01 07:00N 48°37' W 123°09'0 0.0
2017-May-01 06:30N 48°37' W 123°09'0 0.0
2017-May-01 05:59N 48°37' W 123°09'0 0.0
2017-May-01 05:30N 48°37' W 123°09'0 0.0
2017-May-01 04:44N 48°37' W 123°09'0 0.0
2017-May-01 04:29N 48°37' W 123°09'0 0.0
2017-May-01 03:51N 48°37' W 123°09'0 0.0
2017-May-01 03:24N 48°37' W 123°09'0 0.0
2017-May-01 03:00N 48°37' W 123°09'0 0.0
2017-May-01 02:29N 48°37' W 123°09'0 0.0
2017-May-01 01:58N 48°37' W 123°09'0 0.0
2017-May-01 01:30N 48°37' W 123°09'0 0.0
2017-May-01 00:58N 48°37' W 123°09'1 2.6
2017-May-01 00:30N 48°38' W 123°10'1 0.6
2017-Apr-30 22:20N 48°39' W 123°11'2 7.4
2017-Apr-30 22:00N 48°37' W 123°09'0 0.0
2017-Apr-30 21:24N 48°37' W 123°09'0 0.0
2017-Apr-30 20:58N 48°37' W 123°09'0 0.0
2017-Apr-30 20:26N 48°37' W 123°09'0 0.0
2017-Apr-30 19:37N 48°37' W 123°09'0 0.0
2017-Apr-30 18:29N 48°37' W 123°09'0 0.0
2017-Apr-30 17:59N 48°37' W 123°09'0 0.0
2017-Apr-30 16:21N 48°37' W 123°09'0 0.0
2017-Apr-30 15:57N 48°37' W 123°09'0 0.0
2017-Apr-30 15:23N 48°37' W 123°09'0 0.0
2017-Apr-30 14:55N 48°37' W 123°09'0 0.0
2017-Apr-30 14:00N 48°37' W 123°09'0 0.0
2017-Apr-30 13:29N 48°37' W 123°09'0 0.0
2017-Apr-30 12:59N 48°37' W 123°09'0 0.0
2017-Apr-30 12:27N 48°37' W 123°09'0 0.0
2017-Apr-30 12:00N 48°37' W 123°09'0 0.0
2017-Apr-30 11:30N 48°37' W 123°09'0 0.0
2017-Apr-30 11:00N 48°37' W 123°09'0 0.0
2017-Apr-30 10:30N 48°37' W 123°09'0 0.0
2017-Apr-30 10:00N 48°37' W 123°09'0 0.0
2017-Apr-30 08:42N 48°37' W 123°09'0 0.0
2017-Apr-30 08:29N 48°37' W 123°09'0 0.0
2017-Apr-30 07:21N 48°37' W 123°09'0 0.0
2017-Apr-30 06:54N 48°37' W 123°09'0 0.0
2017-Apr-30 06:30N 48°37' W 123°09'0 0.0
2017-Apr-30 06:00N 48°37' W 123°09'0 0.0
2017-Apr-30 05:26N 48°37' W 123°09'0 0.0
2017-Apr-30 04:59N 48°37' W 123°09'0 0.0
2017-Apr-30 04:29N 48°37' W 123°09'0 0.0
2017-Apr-30 03:57N 48°37' W 123°09'0 0.0
2017-Apr-30 03:27N 48°37' W 123°09'0 0.0
2017-Apr-30 02:49N 48°37' W 123°09'0 0.0
2017-Apr-30 02:30N 48°37' W 123°09'0 0.0
2017-Apr-30 01:45N 48°37' W 123°09'0 0.0
2017-Apr-30 00:41N 48°37' W 123°09'0 0.0
2017-Apr-30 00:27N 48°37' W 123°09'0 0.0
2017-Apr-29 22:12N 48°37' W 123°09'0 0.0
2017-Apr-29 20:24N 48°37' W 123°09'0 0.0
2017-Apr-29 19:53N 48°37' W 123°09'0 0.0
2017-Apr-29 19:26N 48°37' W 123°09'0 0.0
2017-Apr-29 18:59N 48°37' W 123°09'0 0.0
2017-Apr-29 18:27N 48°37' W 123°09'0 0.0
2017-Apr-29 17:55N 48°37' W 123°09'0 0.0
2017-Apr-29 17:29N 48°37' W 123°09'0 0.0
2017-Apr-29 16:46N 48°37' W 123°09'0 0.0
2017-Apr-29 16:27N 48°37' W 123°09'0 0.0
2017-Apr-29 15:59N 48°37' W 123°09'0 0.0
2017-Apr-29 15:27N 48°37' W 123°09'0 0.0
2017-Apr-29 14:58N 48°37' W 123°09'0 0.0
2017-Apr-29 14:00N 48°37' W 123°09'0 0.0
2017-Apr-29 13:30N 48°37' W 123°09'0 0.0
2017-Apr-29 12:52N 48°37' W 123°09'0 0.0
2017-Apr-29 12:30N 48°37' W 123°09'0 0.0
2017-Apr-29 11:52N 48°37' W 123°09'0 0.0
2017-Apr-29 11:30N 48°37' W 123°09'0 0.0
2017-Apr-29 11:00N 48°37' W 123°09'0 0.0
2017-Apr-29 10:30N 48°37' W 123°09'0 0.0
2017-Apr-29 10:00N 48°37' W 123°09'0 0.0
2017-Apr-29 09:25N 48°37' W 123°09'0 0.0
2017-Apr-29 08:38N 48°37' W 123°09'0 0.0
2017-Apr-29 08:30N 48°37' W 123°09'0 0.0
2017-Apr-29 08:00N 48°37' W 123°09'0 0.0
2017-Apr-29 07:30N 48°37' W 123°09'0 0.0
2017-Apr-29 07:00N 48°37' W 123°09'0 0.0
2017-Apr-29 06:19N 48°37' W 123°09'0 0.0
2017-Apr-29 05:58N 48°37' W 123°09'0 0.0
2017-Apr-29 05:30N 48°37' W 123°09'0 0.0
2017-Apr-29 05:00N 48°37' W 123°09'0 0.0
2017-Apr-29 04:30N 48°37' W 123°09'0 0.0
2017-Apr-29 04:00N 48°37' W 123°09'0 0.0
2017-Apr-29 03:30N 48°37' W 123°09'0 0.0
2017-Apr-29 02:59N 48°37' W 123°09'0 0.0
2017-Apr-29 02:30N 48°37' W 123°09'0 0.0
2017-Apr-29 02:00N 48°37' W 123°09'0 0.0
2017-Apr-29 01:28N 48°37' W 123°09'0 0.0
2017-Apr-29 00:58N 48°37' W 123°09'0 0.0
2017-Apr-29 00:27N 48°37' W 123°09'0 0.0
2017-Apr-29 00:00N 48°37' W 123°09'0 0.0
2017-Apr-28 23:27N 48°37' W 123°09'0 0.0
2017-Apr-28 22:45N 48°37' W 123°09'0 0.0
2017-Apr-28 22:28N 48°37' W 123°09'0 0.0
2017-Apr-28 21:58N 48°37' W 123°09'0 0.0
2017-Apr-28 21:30N 48°37' W 123°09'0 0.0
2017-Apr-28 20:59N 48°37' W 123°09'0 0.0
2017-Apr-28 20:28N 48°37' W 123°09'0 0.0
2017-Apr-28 19:58N 48°37' W 123°09'0 0.0
2017-Apr-28 19:30N 48°37' W 123°09'0 0.0
2017-Apr-28 18:51N 48°37' W 123°09'0 0.0
2017-Apr-28 18:23N 48°37' W 123°09'0 0.0
2017-Apr-28 17:59N 48°37' W 123°09'0 0.0
2017-Apr-28 17:24N 48°37' W 123°09'0 0.0
2017-Apr-28 17:00N 48°37' W 123°09'0 0.0
2017-Apr-28 16:28N 48°37' W 123°09'0 0.0
2017-Apr-28 16:00N 48°37' W 123°09'0 0.0
2017-Apr-28 15:26N 48°37' W 123°09'0 0.0
2017-Apr-28 15:00N 48°37' W 123°09'0 0.0
2017-Apr-28 14:00N 48°37' W 123°09'0 0.0
2017-Apr-28 13:30N 48°37' W 123°09'0 0.0
2017-Apr-28 13:00N 48°37' W 123°09'0 0.0
2017-Apr-28 12:30N 48°37' W 123°09'0 0.0
2017-Apr-28 11:59N 48°37' W 123°09'0 0.0
2017-Apr-28 11:00N 48°37' W 123°09'0 0.0
2017-Apr-28 10:30N 48°37' W 123°09'0 0.0
2017-Apr-28 10:00N 48°37' W 123°09'0 0.0
2017-Apr-28 09:30N 48°37' W 123°09'0 0.0
2017-Apr-28 07:44N 48°37' W 123°09'0 0.0
2017-Apr-28 07:30N 48°37' W 123°09'0 0.0
2017-Apr-28 06:53N 48°37' W 123°09'0 0.0
2017-Apr-28 06:20N 48°37' W 123°09'0 0.0
2017-Apr-28 05:59N 48°37' W 123°09'0 0.0
2017-Apr-28 05:30N 48°37' W 123°09'0 0.0
2017-Apr-28 04:39N 48°37' W 123°09'0 0.0
2017-Apr-28 04:30N 48°37' W 123°09'0 0.0
2017-Apr-28 03:55N 48°37' W 123°09'0 0.0
2017-Apr-28 03:30N 48°37' W 123°09'0 0.0
2017-Apr-28 03:00N 48°37' W 123°09'0 0.0
2017-Apr-28 01:48N 48°37' W 123°09'0 0.0
2017-Apr-28 01:29N 48°37' W 123°09'0 0.0
2017-Apr-28 00:59N 48°37' W 123°09'0 0.0
2017-Apr-28 00:29N 48°37' W 123°09'0 0.0
2017-Apr-28 00:00N 48°37' W 123°09'0 0.0
2017-Apr-27 23:30N 48°37' W 123°09'0 0.0
2017-Apr-27 22:55N 48°37' W 123°09'0 0.0
2017-Apr-27 22:29N 48°37' W 123°09'0 0.0
2017-Apr-27 22:00N 48°37' W 123°09'  

Dump ship's entire track history